Archival Weather

Chicago/Rockford Intl

Rockford, Illinois (KRFD)

Report from: Friday, February 3, 2023 2:54 AM CST
Current time: Tuesday, June 25, 2024 4:53 AM CDT

Current weather – Weather history – Daily summaries
Weather forecast

Temperature-16.7°C (1.9°F)
Wind chill-25.4°C (-13.8°F)
Dew point-24.4°C (-11.9°F)
Winds 9 kts (4.6 m/s, 10.4 mph) North-Northwest (340°)
Visibility10 mi. (16.1 km)
Clouds Sky clear
Altimeter30.51 in.Hg (1033 mB)
Relative humidity51 %
Density altitude-4,742 ft. (-1,445 m)
Sea-level pressure103.5 kPa (1035 mB, 30.55 in.Hg)
Remarks Automated weather observing station with precipitation discriminator
Pressure rising more slowly
Flight conditions Visual Meteorological Conditions
Raw dataKRFD 030854Z 34009KT 10SM CLR M17/M24 A3051 RMK AO2 SLP346 T11671244 51021
An unhandled exception has occurred. See browser dev tools for details. Reload 🗙